Paramount, California
Current Conditions -  °F | °C
As of 4:53 PM on Saturday 22 Nov 2014 (Local Time) from KLGB Reporting Station
Scattered Clouds Scattered Clouds  
Wind Chill: 65°   Ceiling: Unl
Heat Index: 65°   Visibility: 10mi
Dew Point: 57°   Wind: 3mph
Humidity: 75%   Direction: 180°S
Pressure: 30.01"   Gusts: NA
Location:  33.89°N, 118.16°W
Report Text: KLGB 230053Z 18003KT 10SM SCT250 18/14 A3001 RMK AO2 SLP163 T01830139
Loading
Personal Weather Stations






























Interactive Weather Map New forecast layout! Learn more

10-Day Weather Forecast

Advertisements
Track Severe Weather on mobile